Time;durP1;ratioP1;P1;durP2;ratioP2;P2;SDS_P1;SDS_P2;PMS_P1;PMS_P2;Temp;Humidity;BMP_temperature;BMP_pressure;BME280_temperature;BME280_humidity;BME280_pressure;Samples;Min_cycle;Max_cycle;Signal;HPM_P1;HPM_P2
2024/03/15 00:01:12;;;;;;;;;;;;;;;8.73;100.00;98873.13;5051133;28;20492;-80
2024/03/15 00:03:37;;;;;;;;;;;;;;;8.67;100.00;98870.09;5050492;28;19916;-79
2024/03/15 00:06:03;;;;;;;;;;;;;;;8.62;100.00;98865.03;5050448;28;20351;-78
2024/03/15 00:08:28;;;;;;;;;;;;;;;8.59;100.00;98865.88;5050750;28;19975;-79
2024/03/15 00:10:54;;;;;;;;;;;;;;;8.58;100.00;98864.31;5038778;28;19932;-79
2024/03/15 00:13:19;;;;;;;;;;;;;;;8.63;100.00;98860.31;5030923;28;19917;-80
2024/03/15 00:15:44;;;;;;;;;;;;;;;8.73;99.21;98865.66;5044141;28;20368;-79
2024/03/15 00:18:09;;;;;;;;;;;;;;;8.79;99.20;98865.94;5050594;28;19974;-80
2024/03/15 00:20:35;;;;;;;;;;;;;;;8.77;100.00;98862.81;5050313;28;19923;-79
2024/03/15 00:23:00;;;;;;;;;;;;;;;8.73;100.00;98865.66;5045592;28;20011;-80
2024/03/15 00:25:25;;;;;;;;;;;;;;;8.75;100.00;98868.75;5043096;28;19916;-79
2024/03/15 00:27:52;;;;;;;;;;;;;;;8.75;100.00;98866.00;5050580;28;19924;-80
2024/03/15 00:30:17;;;;;;;;;;;;;;;8.68;100.00;98857.84;5050552;28;19967;-79
2024/03/15 00:32:42;;;;;;;;;;;;;;;8.72;100.00;98860.56;5037295;28;20410;-80
2024/03/15 00:35:08;;;;;;;;;;;;;;;8.69;100.00;98864.13;5050468;28;20378;-80
2024/03/15 00:37:34;;;;;;;;;;;;;;;8.69;100.00;98861.38;5039070;28;19921;-80
2024/03/15 00:39:59;;;;;;;;;;;;;;;8.69;100.00;98859.41;5050807;28;19928;-79
2024/03/15 00:42:24;;;;;;;;;;;;;;;8.65;100.00;98863.44;5050392;28;19920;-78
2024/03/15 00:44:49;;;;;;;;;;;;;;;8.65;100.00;98860.66;5052138;28;20385;-78
2024/03/15 00:47:15;;;;;;;;;;;;;;;8.57;100.00;98863.53;5054380;28;20006;-78
2024/03/15 00:49:40;;;;;;;;;;;;;;;8.62;100.00;98859.53;5054042;28;20308;-79
2024/03/15 00:52:06;;;;;;;;;;;;;;;8.59;100.00;98860.38;5041257;28;20012;-79
2024/03/15 00:54:31;;;;;;;;;;;;;;;8.54;100.00;98858.09;5054093;28;19917;-79
2024/03/15 00:56:57;;;;;;;;;;;;;;;8.45;100.00;98855.09;5054246;28;19935;-79
2024/03/15 00:59:22;;;;;;;;;;;;;;;8.51;100.00;98851.44;5054057;28;19912;-79
2024/03/15 01:01:47;;;;;;;;;;;;;;;8.44;100.00;98854.31;5053994;28;19913;-79
2024/03/15 01:04:13;;;;;;;;;;;;;;;8.42;100.00;98853.19;5044768;28;20283;-79
2024/03/15 01:06:38;;;;;;;;;;;;;;;8.33;100.00;98853.72;5035696;28;20012;-80
2024/03/15 01:09:04;;;;;;;;;;;;;;;8.34;100.00;98847.00;5044796;28;19913;-79
2024/03/15 01:11:29;;;;;;;;;;;;;;;8.35;100.00;98856.06;5053812;28;20514;-79
2024/03/15 01:13:57;;;;;;;;;;;;;;;8.39;100.00;98854.78;5054100;28;19924;-78
2024/03/15 01:16:22;;;;;;;;;;;;;;;8.42;100.00;98856.72;5054591;28;20019;-80
2024/03/15 01:18:48;;;;;;;;;;;;;;;8.41;100.00;98857.13;5054747;28;20011;-79
2024/03/15 01:21:13;;;;;;;;;;;;;;;8.41;100.00;98860.66;5054221;28;19916;-79
2024/03/15 01:23:38;;;;;;;;;;;;;;;8.39;100.00;98854.78;5045301;28;19921;-79
2024/03/15 01:26:04;;;;;;;;;;;;;;;8.41;100.00;98852.41;5039138;28;19917;-79
2024/03/15 01:28:29;;;;;;;;;;;;;;;8.46;100.00;98851.16;5066624;28;19925;-80
2024/03/15 01:30:54;;;;;;;;;;;;;;;8.39;100.00;98851.25;5064596;28;19982;-80
2024/03/15 01:33:20;;;;;;;;;;;;;;;8.32;100.00;98852.16;5076903;28;19932;-80
2024/03/15 01:35:46;;;;;;;;;;;;;;;8.14;100.00;98843.34;5075762;28;19917;-79
2024/03/15 01:38:11;;;;;;;;;;;;;;;8.16;100.00;98841.75;5054183;28;19917;-80
2024/03/15 01:40:36;;;;;;;;;;;;;;;8.28;100.00;98839.63;5053706;28;19925;-81
2024/03/15 01:43:01;;;;;;;;;;;;;;;8.30;100.00;98839.97;5059604;28;19921;-80
2024/03/15 01:45:27;;;;;;;;;;;;;;;8.30;100.00;98842.75;5068775;28;19917;-80
2024/03/15 01:47:53;;;;;;;;;;;;;;;8.40;100.00;98841.81;5053406;28;19928;-80
2024/03/15 01:50:21;;;;;;;;;;;;;;;8.37;100.00;98848.16;5052741;28;19956;-80
2024/03/15 01:52:46;;;;;;;;;;;;;;;8.31;100.00;98844.31;5053464;28;19921;-80
2024/03/15 01:55:11;;;;;;;;;;;;;;;8.23;100.00;98840.09;5052789;28;19939;-80
2024/03/15 01:57:37;;;;;;;;;;;;;;;8.25;100.00;98840.47;5052368;28;19916;-80
2024/03/15 02:00:05;;;;;;;;;;;;;;;8.16;100.00;98838.22;5041259;28;19917;-79
2024/03/15 02:02:33;;;;;;;;;;;;;;;8.23;100.00;98845.59;5054426;28;19924;-80
2024/03/15 02:04:58;;;;;;;;;;;;;;;8.30;100.00;98839.97;5052824;28;19916;-80
2024/03/15 02:07:29;;;;;;;;;;;;;;;8.36;100.00;98847.38;5044884;28;20378;-81
2024/03/15 02:09:55;;;;;;;;;;;;;;;8.30;100.00;98827.03;5047784;28;19924;-79
2024/03/15 02:12:20;;;;;;;;;;;;;;;8.43;100.00;98838.22;5043885;28;19921;-80
2024/03/15 02:14:49;;;;;;;;;;;;;;;8.50;100.00;98841.63;5048846;28;19921;-80
2024/03/15 02:17:14;;;;;;;;;;;;;;;8.52;100.00;98833.72;5043592;28;19921;-79
2024/03/15 02:19:40;;;;;;;;;;;;;;;8.42;100.00;98844.94;5053214;28;19924;-79
2024/03/15 02:22:05;;;;;;;;;;;;;;;8.46;100.00;98842.88;5052746;28;19956;-79
2024/03/15 02:24:31;;;;;;;;;;;;;;;8.41;100.00;98835.09;5052544;28;19927;-80
2024/03/15 02:26:56;;;;;;;;;;;;;;;8.45;100.00;98841.31;5052872;28;19923;-79
2024/03/15 02:29:22;;;;;;;;;;;;;;;8.37;100.00;98839.91;5040425;28;19965;-80
2024/03/15 02:31:47;;;;;;;;;;;;;;;8.40;100.00;98842.59;5042933;28;19921;-80
2024/03/15 02:34:15;;;;;;;;;;;;;;;8.26;100.00;98848.28;5047020;28;19928;-81
2024/03/15 02:36:41;;;;;;;;;;;;;;;8.14;100.00;98840.59;5044008;28;19963;-79
2024/03/15 02:39:07;;;;;;;;;;;;;;;8.02;100.00;98841.19;5047747;28;20396;-79
2024/03/15 02:41:33;;;;;;;;;;;;;;;7.98;100.00;98834.97;5032661;28;19920;-80
2024/03/15 02:43:59;;;;;;;;;;;;;;;7.93;100.00;98833.47;5050270;28;19920;-80
2024/03/15 02:46:25;;;;;;;;;;;;;;;7.87;100.00;98832.38;5042483;28;19924;-80
2024/03/15 02:48:50;;;;;;;;;;;;;;;7.94;100.00;98831.50;5050338;28;19917;-80
2024/03/15 02:51:16;;;;;;;;;;;;;;;7.96;100.00;98832.63;5052229;28;19917;-78
2024/03/15 02:53:41;;;;;;;;;;;;;;;7.94;100.00;98835.03;5051709;28;19960;-79
2024/03/15 02:56:06;;;;;;;;;;;;;;;7.99;100.00;98837.31;5053550;28;19916;-79
2024/03/15 02:58:31;;;;;;;;;;;;;;;7.96;100.00;98831.84;5051556;28;19960;-79
2024/03/15 03:00:57;;;;;;;;;;;;;;;7.98;100.00;98834.97;5052141;28;19917;-79
2024/03/15 03:03:22;;;;;;;;;;;;;;;7.99;100.00;98828.28;5048720;28;19924;-79
2024/03/15 03:05:47;;;;;;;;;;;;;;;7.96;100.00;98834.59;5031789;28;19917;-79
2024/03/15 03:08:14;;;;;;;;;;;;;;;7.87;100.00;98826.88;5048527;28;19971;-80
2024/03/15 03:10:40;;;;;;;;;;;;;;;7.88;100.00;98822.94;5051388;28;19999;-80
2024/03/15 03:13:05;;;;;;;;;;;;;;;7.83;100.00;98820.66;5051586;28;19999;-80
2024/03/15 03:15:30;;;;;;;;;;;;;;;7.79;100.00;98825.41;5041940;28;20480;-79
2024/03/15 03:17:59;;;;;;;;;;;;;;;7.84;100.00;98829.66;5048030;28;19913;-80
2024/03/15 03:20:25;;;;;;;;;;;;;;;7.78;100.00;98834.09;5051364;28;19956;-81
2024/03/15 03:22:53;;;;;;;;;;;;;;;7.67;100.00;98834.22;5039532;28;19920;-80
2024/03/15 03:25:19;;;;;;;;;;;;;;;7.65;100.00;98826.41;5051966;28;19940;-80
2024/03/15 03:27:44;;;;;;;;;;;;;;;7.62;100.00;98834.69;5051098;28;20404;-79
2024/03/15 03:30:10;;;;;;;;;;;;;;;7.57;100.00;98846.16;5041102;28;19924;-79
2024/03/15 03:32:35;;;;;;;;;;;;;;;7.59;100.00;98844.56;5036561;28;19925;-78
2024/03/15 03:35:03;;;;;;;;;;;;;;;7.62;100.00;98846.47;5051267;28;20385;-78
2024/03/15 03:37:28;;;;;;;;;;;;;;;7.66;100.00;98840.91;5051046;28;19916;-80
2024/03/15 03:39:53;;;;;;;;;;;;;;;7.58;100.00;98847.72;5051528;28;19921;-79
2024/03/15 03:42:20;;;;;;;;;;;;;;;7.60;100.00;98851.59;5051078;28;19995;-79
2024/03/15 03:44:45;;;;;;;;;;;;;;;7.73;100.00;98849.06;5052201;28;19917;-79
2024/03/15 03:47:10;;;;;;;;;;;;;;;7.74;100.00;98845.91;5038806;28;19927;-79
2024/03/15 03:49:36;;;;;;;;;;;;;;;7.75;100.00;98841.97;5051483;28;19913;-79
2024/03/15 03:52:01;;;;;;;;;;;;;;;7.66;100.00;98847.19;5051912;28;19917;-80
2024/03/15 03:54:26;;;;;;;;;;;;;;;7.60;100.00;98856.31;5052378;28;20413;-79
2024/03/15 03:56:51;;;;;;;;;;;;;;;7.58;100.00;98839.47;5050791;28;19916;-80
2024/03/15 03:59:17;;;;;;;;;;;;;;;7.53;100.00;98848.16;5050846;28;19924;-78
2024/03/15 04:01:43;;;;;;;;;;;;;;;7.54;100.00;98849.69;5050569;28;19973;-80
2024/03/15 04:04:08;;;;;;;;;;;;;;;7.59;100.00;98850.06;5042907;28;19944;-79
2024/03/15 04:06:34;;;;;;;;;;;;;;;7.55;100.00;98849.31;5046914;28;20534;-79
2024/03/15 04:08:59;;;;;;;;;;;;;;;7.57;100.00;98851.66;5050899;28;20007;-79
2024/03/15 04:11:25;;;;;;;;;;;;;;;7.57;100.00;98854.38;5051830;28;19920;-80
2024/03/15 04:13:52;;;;;;;;;;;;;;;7.51;100.00;98847.78;5050365;28;19917;-80
2024/03/15 04:16:18;;;;;;;;;;;;;;;7.49;100.00;98850.94;5048057;28;19964;-79
2024/03/15 04:18:43;;;;;;;;;;;;;;;7.49;100.00;98847.41;5040472;28;20513;-80
2024/03/15 04:21:10;;;;;;;;;;;;;;;7.46;100.00;98851.78;5051953;28;20403;-80
2024/03/15 04:23:35;;;;;;;;;;;;;;;7.42;100.00;98850.25;5050621;28;20289;-80
2024/03/15 04:26:01;;;;;;;;;;;;;;;7.33;100.00;98848.00;5051569;28;19991;-79
2024/03/15 04:28:28;;;;;;;;;;;;;;;7.22;100.00;98855.59;5041035;28;20007;-80
2024/03/15 04:30:56;;;;;;;;;;;;;;;7.13;100.00;98847.84;5033270;28;19931;-79
2024/03/15 04:33:22;;;;;;;;;;;;;;;7.06;100.00;98856.16;5042009;28;20455;-80
2024/03/15 04:35:47;;;;;;;;;;;;;;;6.94;100.00;98849.22;5046936;28;19920;-80
2024/03/15 04:38:15;;;;;;;;;;;;;;;6.89;100.00;98849.66;5050628;28;20392;-79
2024/03/15 04:40:40;;;;;;;;;;;;;;;6.76;100.00;98859.59;5049973;28;19924;-80
2024/03/15 04:43:06;;;;;;;;;;;;;;;6.63;100.00;98866.03;5050238;28;19917;-80
2024/03/15 04:45:31;;;;;;;;;;;;;;;6.53;100.00;98868.44;5050493;28;19931;-80
2024/03/15 04:47:57;;;;;;;;;;;;;;;6.48;100.00;98882.59;5050561;28;20669;-80
2024/03/15 04:50:22;;;;;;;;;;;;;;;6.44;100.00;98887.34;5050240;28;19943;-79
2024/03/15 04:52:50;;;;;;;;;;;;;;;6.59;100.00;98881.72;5050590;28;20401;-80
2024/03/15 04:55:15;;;;;;;;;;;;;;;6.60;100.00;98886.81;5036874;28;19916;-79
2024/03/15 04:57:40;;;;;;;;;;;;;;;6.63;100.00;98893.47;5049817;28;19921;-80
2024/03/15 05:00:09;;;;;;;;;;;;;;;6.65;100.00;98891.09;5050414;28;20355;-80
2024/03/15 05:02:35;;;;;;;;;;;;;;;6.75;100.00;98901.22;5041425;28;19917;-80
2024/03/15 05:05:00;;;;;;;;;;;;;;;6.84;100.00;98898.75;5046759;28;19940;-80
2024/03/15 05:07:25;;;;;;;;;;;;;;;7.01;100.00;98899.78;5050055;28;19916;-81
2024/03/15 05:09:51;;;;;;;;;;;;;;;7.21;100.00;98896.03;5037160;28;20011;-80
2024/03/15 05:12:16;;;;;;;;;;;;;;;7.36;100.00;98902.16;5040137;28;20447;-80
2024/03/15 05:14:41;;;;;;;;;;;;;;;7.59;100.00;98905.03;5047430;28;19923;-80
2024/03/15 05:17:07;;;;;;;;;;;;;;;7.82;100.00;98907.09;5050444;28;19912;-80
2024/03/15 05:19:32;;;;;;;;;;;;;;;7.99;99.34;98903.34;5047105;28;19967;-80
2024/03/15 05:21:58;;;;;;;;;;;;;;;8.60;97.29;98900.50;5040156;28;19919;-81
2024/03/15 05:24:24;;;;;;;;;;;;;;;9.44;93.60;98902.16;5049622;28;20327;-81
2024/03/15 05:26:49;;;;;;;;;;;;;;;10.02;87.62;98906.84;5049928;28;19924;-80
2024/03/15 05:29:14;;;;;;;;;;;;;;;10.47;82.19;98901.50;5051343;28;20012;-81
2024/03/15 05:31:40;;;;;;;;;;;;;;;11.20;78.39;98902.84;5051192;28;19912;-80
2024/03/15 05:34:07;;;;;;;;;;;;;;;11.46;76.33;98911.22;5052869;28;19925;-81
2024/03/15 05:36:33;;;;;;;;;;;;;;;11.87;72.04;98905.75;5053518;28;20013;-80
2024/03/15 05:38:59;;;;;;;;;;;;;;;12.54;65.71;98916.75;5053332;28;20063;-81
2024/03/15 05:41:24;;;;;;;;;;;;;;;12.67;65.41;98917.50;5053496;28;19975;-80
2024/03/15 05:43:49;;;;;;;;;;;;;;;13.05;64.46;98915.47;5052951;28;20019;-80
2024/03/15 05:46:15;;;;;;;;;;;;;;;13.60;60.62;98918.72;5053510;28;19917;-80
2024/03/15 05:48:40;;;;;;;;;;;;;;;14.01;58.60;98906.50;5039715;28;19967;-80
2024/03/15 05:51:06;;;;;;;;;;;;;;;14.46;56.38;98908.75;5053054;28;19986;-80
2024/03/15 05:53:32;;;;;;;;;;;;;;;14.40;56.62;98915.38;5040911;28;19917;-80
2024/03/15 05:55:57;;;;;;;;;;;;;;;15.49;53.41;98910.78;5053178;28;19924;-81
2024/03/15 05:58:22;;;;;;;;;;;;;;;16.57;48.80;98919.41;5052595;28;20336;-83
2024/03/15 06:00:55;;;;;;;;;;;;;;;16.69;47.25;98920.47;5044131;28;19917;-81
2024/03/15 06:03:21;;;;;;;;;;;;;;;16.66;46.66;98926.97;5046815;28;20012;-82
2024/03/15 06:05:46;;;;;;;;;;;;;;;17.36;45.34;98930.28;5043362;28;19968;-80
2024/03/15 06:08:11;;;;;;;;;;;;;;;18.23;43.23;98931.69;5050950;28;20336;-82
2024/03/15 06:10:37;;;;;;;;;;;;;;;18.86;41.31;98940.59;5032953;28;20439;-79
2024/03/15 06:13:04;;;;;;;;;;;;;;;19.36;39.58;98935.66;5044535;28;19967;-81
2024/03/15 06:15:30;;;;;;;;;;;;;;;19.66;38.51;98933.50;5043320;28;19967;-80
2024/03/15 06:17:55;;;;;;;;;;;;;;;19.07;39.86;98939.34;5040764;28;19929;-80
2024/03/15 06:20:21;;;;;;;;;;;;;;;18.04;40.62;98941.50;5026895;28;19921;-80
2024/03/15 06:22:46;;;;;;;;;;;;;;;17.23;42.61;98938.13;5028905;28;19928;-80
2024/03/15 06:25:11;;;;;;;;;;;;;;;16.75;44.08;98940.13;5032955;28;19917;-81
2024/03/15 06:27:39;;;;;;;;;;;;;;;16.01;47.06;98936.78;5032675;28;20445;-81
2024/03/15 06:30:05;;;;;;;;;;;;;;;15.78;47.66;98948.56;5040767;28;19916;-82
2024/03/15 06:32:36;;;;;;;;;;;;;;;14.83;50.12;98942.25;5053760;28;19931;-81
2024/03/15 06:35:08;;;;;;;;;;;;;;;13.52;56.40;98944.41;5034652;28;20564;-81
2024/03/15 06:37:33;;;;;;;;;;;;;;;12.96;60.59;98945.88;5049966;28;20003;-80
2024/03/15 06:42:34;;;;;;;;;;;;;;;12.98;64.83;98943.44;5053482;28;19916;-82
2024/03/15 06:45:12;;;;;;;;;;;;;;;12.72;65.08;98933.59;5054480;28;20012;-80
2024/03/15 06:47:38;;;;;;;;;;;;;;;12.66;64.54;98934.63;5040267;28;19931;-82
2024/03/15 06:52:38;;;;;;;;;;;;;;;12.57;65.74;98930.50;5038828;28;19920;-81
2024/03/15 06:55:05;;;;;;;;;;;;;;;12.88;65.68;98936.25;5039231;28;19928;-82
2024/03/15 06:57:32;;;;;;;;;;;;;;;13.27;65.92;98937.72;5024759;28;20446;-83
2024/03/15 06:59:58;;;;;;;;;;;;;;;13.01;65.60;98939.78;5051941;28;20394;-81
2024/03/15 07:02:23;;;;;;;;;;;;;;;12.78;65.91;98931.81;5051120;28;20007;-81
2024/03/15 07:04:50;;;;;;;;;;;;;;;12.66;67.89;98945.69;5051468;28;20396;-82
2024/03/15 07:07:19;;;;;;;;;;;;;;;12.52;68.83;98933.84;5052760;28;19920;-81
2024/03/15 07:09:45;;;;;;;;;;;;;;;12.93;68.24;98934.91;5049602;28;20438;-82
2024/03/15 07:12:10;;;;;;;;;;;;;;;13.26;66.02;98935.41;5050753;28;19924;-81
2024/03/15 07:14:39;;;;;;;;;;;;;;;13.28;66.89;98932.94;5049509;28;19924;-81
2024/03/15 07:17:04;;;;;;;;;;;;;;;13.65;62.08;98934.81;5052568;28;19920;-82
2024/03/15 07:19:32;;;;;;;;;;;;;;;12.89;62.15;98932.25;5036505;28;19921;-80
2024/03/15 07:21:57;;;;;;;;;;;;;;;13.07;65.79;98936.44;5042674;28;20011;-81
2024/03/15 07:24:23;;;;;;;;;;;;;;;13.75;64.28;98933.63;5052806;28;19956;-83
2024/03/15 07:26:48;;;;;;;;;;;;;;;13.69;63.93;98927.13;5040959;28;20426;-83
2024/03/15 07:29:14;;;;;;;;;;;;;;;13.32;61.61;98933.63;5037873;28;19921;-81
2024/03/15 07:31:39;;;;;;;;;;;;;;;13.57;57.90;98927.94;5051165;28;19919;-82
2024/03/15 07:34:05;;;;;;;;;;;;;;;13.62;56.50;98923.84;5035344;28;19921;-82
2024/03/15 07:36:32;;;;;;;;;;;;;;;13.67;58.13;98921.25;5032517;28;19913;-81
2024/03/15 07:38:57;;;;;;;;;;;;;;;13.29;59.03;98920.63;5034108;28;20440;-83
2024/03/15 07:41:27;;;;;;;;;;;;;;;13.05;59.83;98925.78;5052467;28;20004;-82
2024/03/15 07:43:53;;;;;;;;;;;;;;;13.31;63.67;98929.28;5047636;28;20247;-82
2024/03/15 07:46:18;;;;;;;;;;;;;;;13.17;60.04;98927.00;5041488;28;20454;-81
2024/03/15 07:48:43;;;;;;;;;;;;;;;12.70;62.12;98927.72;5050759;28;20385;-82
2024/03/15 07:51:08;;;;;;;;;;;;;;;13.19;61.72;98924.56;5051501;28;20422;-81
2024/03/15 07:53:34;;;;;;;;;;;;;;;13.55;64.24;98915.75;5050808;28;19921;-82
2024/03/15 07:56:03;;;;;;;;;;;;;;;13.64;62.66;98918.59;5051192;28;19912;-82
2024/03/15 07:58:29;;;;;;;;;;;;;;;13.32;60.59;98916.97;5038311;28;20000;-83
2024/03/15 08:00:55;;;;;;;;;;;;;;;12.79;60.42;98908.41;5052568;28;20415;-81
2024/03/15 08:03:20;;;;;;;;;;;;;;;12.73;60.55;98901.09;5038759;28;19940;-81
2024/03/15 08:05:48;;;;;;;;;;;;;;;12.88;57.83;98900.19;5051004;28;20063;-81
2024/03/15 08:08:14;;;;;;;;;;;;;;;12.99;58.52;98908.94;5047880;28;19917;-82
2024/03/15 08:10:39;;;;;;;;;;;;;;;13.15;57.67;98904.47;5041227;28;19932;-82
2024/03/15 08:13:04;;;;;;;;;;;;;;;13.40;61.31;98896.06;5039213;28;19935;-81
2024/03/15 08:15:32;;;;;;;;;;;;;;;13.66;58.77;98889.16;5034831;28;20093;-82
2024/03/15 08:17:58;;;;;;;;;;;;;;;13.47;56.15;98895.03;5051689;28;19916;-81
2024/03/15 08:20:23;;;;;;;;;;;;;;;13.38;56.10;98892.97;5041045;28;20396;-82
2024/03/15 08:22:49;;;;;;;;;;;;;;;13.39;62.85;98892.50;5036731;28;19994;-83
2024/03/15 08:25:14;;;;;;;;;;;;;;;13.39;62.25;98884.16;5040479;28;20063;-82
2024/03/15 08:27:44;;;;;;;;;;;;;;;13.18;61.04;98882.16;5048929;28;19912;-82
2024/03/15 08:30:10;;;;;;;;;;;;;;;13.44;59.98;98880.81;5041363;28;19928;-82
2024/03/15 08:32:36;;;;;;;;;;;;;;;13.29;60.64;98887.34;5048259;28;19920;-81
2024/03/15 08:35:02;;;;;;;;;;;;;;;13.20;59.99;98876.91;5050351;28;20011;-82
2024/03/15 08:37:27;;;;;;;;;;;;;;;13.27;62.39;98878.69;5036987;28;19920;-82
2024/03/15 08:39:52;;;;;;;;;;;;;;;13.30;62.70;98869.47;5034307;28;19917;-82
2024/03/15 08:42:18;;;;;;;;;;;;;;;13.36;62.21;98864.88;5048171;28;19919;-80
